Time;durP1;ratioP1;P1;durP2;ratioP2;P2;SDS_P1;SDS_P2;PMS_P1;PMS_P2;Temp;Humidity;BMP_temperature;BMP_pressure;BME280_temperature;BME280_humidity;BME280_pressure;Samples;Min_cycle;Max_cycle;Signal;HPM_P1;HPM_P2
2024/01/29 00:00:19;;;;;;;26.00;17.30;;;;;;;7.95;52.91;103453.00;107037;1263;25392;-53
2024/01/29 00:02:46;;;;;;;24.40;17.80;;;;;;;7.96;52.83;103456.34;107114;1257;22517;-53
2024/01/29 00:05:13;;;;;;;21.00;16.20;;;;;;;7.97;52.81;103459.31;107115;1260;25347;-53
2024/01/29 00:07:41;;;;;;;25.20;18.40;;;;;;;8.00;52.88;103464.41;107150;1254;25363;-53
2024/01/29 00:10:08;;;;;;;22.30;17.10;;;;;;;8.02;52.89;103468.80;107154;1263;25328;-53
2024/01/29 00:12:35;;;;;;;25.00;18.50;;;;;;;8.05;52.74;103469.07;107136;1260;25379;-53
2024/01/29 00:15:03;;;;;;;25.80;17.50;;;;;;;8.08;52.89;103475.21;107102;1257;22539;-53
2024/01/29 00:17:30;;;;;;;23.40;17.20;;;;;;;8.12;52.90;103473.95;106321;1257;1003055;-54
2024/01/29 00:19:57;;;;;;;25.80;17.90;;;;;;;8.14;52.78;103470.05;107071;1261;25571;-54
2024/01/29 00:22:24;;;;;;;24.80;17.60;;;;;;;8.16;52.74;103471.66;106061;1266;1003081;-55
2024/01/29 00:24:51;;;;;;;21.90;16.20;;;;;;;8.16;52.68;103469.07;107128;1263;25330;-55
2024/01/29 00:27:19;;;;;;;24.60;17.90;;;;;;;8.14;52.75;103468.14;107036;1264;25318;-55
2024/01/29 00:29:46;;;;;;;25.60;18.40;;;;;;;8.13;52.73;103466.02;107144;1257;22517;-54
2024/01/29 00:32:12;;;;;;;25.80;18.40;;;;;;;8.10;52.72;103467.67;107132;1263;23312;-54
2024/01/29 00:34:40;;;;;;;24.60;18.30;;;;;;;8.07;52.84;103459.10;106826;1260;25371;-54
2024/01/29 00:37:07;;;;;;;27.00;19.00;;;;;;;8.05;52.99;103461.98;107045;1270;25346;-54
2024/01/29 00:39:34;;;;;;;27.00;18.80;;;;;;;8.06;53.00;103457.38;106744;1267;25477;-54
2024/01/29 00:42:01;;;;;;;27.10;19.10;;;;;;;8.08;53.06;103457.91;107241;1261;25356;-55
2024/01/29 00:44:28;;;;;;;27.80;18.80;;;;;;;8.06;53.11;103457.52;107196;1258;25478;-54
2024/01/29 00:46:55;;;;;;;28.70;20.00;;;;;;;8.04;53.12;103452.79;107184;1265;23380;-54
2024/01/29 00:49:22;;;;;;;26.80;18.90;;;;;;;8.03;53.36;103451.03;106829;1275;25380;-55
2024/01/29 00:51:49;;;;;;;28.50;20.60;;;;;;;8.02;53.38;103449.42;107148;1267;25319;-55
2024/01/29 00:54:19;;;;;;;27.80;19.30;;;;;;;8.00;53.47;103450.44;106978;1266;25336;-54
2024/01/29 00:56:46;;;;;;;31.40;21.00;;;;;;;8.01;53.43;103453.90;106015;1275;1003590;-58
2024/01/29 00:59:13;;;;;;;28.90;19.40;;;;;;;8.00;53.51;103455.44;106913;1266;25407;-56
2024/01/29 01:01:40;;;;;;;29.10;19.40;;;;;;;8.01;53.53;103455.28;106987;1264;22665;-55
2024/01/29 01:04:07;;;;;;;31.60;21.40;;;;;;;7.97;53.74;103450.67;106839;1255;25340;-54
2024/01/29 01:06:34;;;;;;;31.10;21.30;;;;;;;7.96;53.70;103451.65;106011;1260;1003440;-53
2024/01/29 01:09:02;;;;;;;30.70;19.90;;;;;;;7.94;53.73;103449.02;106899;1269;24222;-53
2024/01/29 01:11:29;;;;;;;31.60;20.90;;;;;;;7.95;53.80;103449.38;106752;1263;25356;-53
2024/01/29 01:13:56;;;;;;;31.00;20.40;;;;;;;7.95;53.76;103450.77;106020;1270;1002948;-55
2024/01/29 01:16:23;;;;;;;30.90;19.90;;;;;;;7.97;53.87;103455.34;107179;1251;25477;-54
2024/01/29 01:18:50;;;;;;;32.50;20.90;;;;;;;7.97;53.79;103452.91;106832;1263;25346;-54
2024/01/29 01:21:18;;;;;;;31.80;19.90;;;;;;;7.98;53.74;103458.28;106345;1265;1003774;-54
2024/01/29 01:23:44;;;;;;;31.60;20.70;;;;;;;7.99;53.89;103460.42;107158;1263;25356;-54
2024/01/29 01:26:12;;;;;;;31.00;20.40;;;;;;;8.00;53.92;103462.33;106790;1270;24223;-54
2024/01/29 01:28:39;;;;;;;33.20;20.10;;;;;;;8.01;53.78;103464.98;107105;1260;25355;-54
2024/01/29 01:31:07;;;;;;;27.90;19.70;;;;;;;8.03;53.81;103467.79;107059;1257;25337;-54
2024/01/29 01:33:34;;;;;;;31.10;20.10;;;;;;;8.03;53.81;103466.41;107080;1263;25322;-53
2024/01/29 01:36:01;;;;;;;30.80;20.90;;;;;;;8.03;53.88;103468.30;106390;1263;1002581;-54
2024/01/29 01:38:28;;;;;;;29.90;19.70;;;;;;;8.02;53.83;103468.63;107146;1256;25393;-54
2024/01/29 01:40:55;;;;;;;33.80;21.30;;;;;;;8.01;53.78;103467.23;107179;1259;25396;-54
2024/01/29 01:43:25;;;;;;;31.10;20.50;;;;;;;8.00;53.88;103471.48;107125;1263;25439;-53
2024/01/29 01:46:04;;;;;;;31.90;21.70;;;;;;;7.99;53.99;103469.92;107008;1270;25318;-54
2024/01/29 01:48:33;;;;;;;30.90;21.30;;;;;;;8.00;53.69;103469.44;106342;1256;1003728;-54
2024/01/29 01:51:00;;;;;;;32.10;21.80;;;;;;;8.00;53.79;103473.73;107050;1256;25280;-54
2024/01/29 01:53:31;;;;;;;32.20;21.70;;;;;;;8.00;53.60;103476.02;107143;1263;23294;-53
2024/01/29 01:56:00;;;;;;;31.00;21.20;;;;;;;8.01;53.62;103478.80;107165;1256;22637;-53
2024/01/29 01:58:27;;;;;;;30.70;20.50;;;;;;;8.00;53.70;103478.25;107212;1266;25391;-54
2024/01/29 02:00:55;;;;;;;34.40;21.70;;;;;;;8.00;53.64;103477.73;107099;1257;25346;-54
2024/01/29 02:03:23;;;;;;;31.60;21.70;;;;;;;8.01;53.69;103482.61;106974;1271;25347;-53
2024/01/29 02:05:50;;;;;;;32.20;20.60;;;;;;;8.00;53.63;103482.75;107094;1263;25389;-54
2024/01/29 02:08:17;;;;;;;35.70;21.90;;;;;;;8.00;53.64;103485.15;107073;1263;25469;-54
2024/01/29 02:10:45;;;;;;;34.10;22.00;;;;;;;8.01;53.79;103481.21;107092;1251;24235;-53
2024/01/29 02:13:13;;;;;;;30.00;20.40;;;;;;;8.01;53.83;103478.81;107179;1257;25439;-54
2024/01/29 02:15:41;;;;;;;32.20;21.20;;;;;;;8.03;53.92;103483.52;107192;1257;25417;-53
2024/01/29 02:18:07;;;;;;;34.50;22.30;;;;;;;8.01;53.81;103482.43;107145;1263;23899;-54
2024/01/29 02:20:35;;;;;;;33.20;21.30;;;;;;;8.01;53.65;103485.91;106941;1257;25343;-54
2024/01/29 02:23:03;;;;;;;34.20;21.40;;;;;;;8.04;53.86;103488.05;106988;1257;25309;-53
2024/01/29 02:25:30;;;;;;;35.80;21.50;;;;;;;8.05;53.81;103491.70;106402;1271;1003308;-54
2024/01/29 02:27:57;;;;;;;35.00;21.40;;;;;;;8.04;53.92;103496.89;106907;1267;25340;-54
2024/01/29 02:30:24;;;;;;;38.90;21.80;;;;;;;8.05;53.95;103501.73;107168;1267;25408;-54
2024/01/29 02:32:51;;;;;;;43.50;30.10;;;;;;;8.05;53.91;103508.31;107162;1260;25331;-54
2024/01/29 02:35:18;;;;;;;36.40;23.40;;;;;;;8.04;53.96;103511.73;106905;1264;25350;-54
2024/01/29 02:37:45;;;;;;;36.00;23.30;;;;;;;8.04;53.83;103510.70;106099;1255;1003668;-54
2024/01/29 02:40:12;;;;;;;35.40;23.20;;;;;;;8.04;53.78;103513.64;106855;1254;22817;-54
2024/01/29 02:42:40;;;;;;;37.50;23.30;;;;;;;8.04;53.99;103513.98;107096;1263;25347;-54
2024/01/29 02:45:07;;;;;;;35.30;21.80;;;;;;;8.05;54.01;103515.73;107091;1260;25322;-54
2024/01/29 02:47:34;;;;;;;37.40;22.10;;;;;;;8.06;53.97;103516.29;106870;1267;23222;-54
2024/01/29 02:50:02;;;;;;;37.90;23.00;;;;;;;8.06;53.90;103511.81;106860;1270;25362;-54
2024/01/29 02:52:29;;;;;;;40.40;23.90;;;;;;;8.07;54.05;103514.23;107174;1265;25497;-54
2024/01/29 02:54:56;;;;;;;37.00;23.50;;;;;;;8.06;53.96;103510.93;107074;1263;23890;-54
2024/01/29 02:57:26;;;;;;;38.10;24.00;;;;;;;8.08;53.89;103511.86;107060;1258;25346;-54
2024/01/29 02:59:53;;;;;;;41.30;24.40;;;;;;;8.68;52.61;103507.36;106348;1263;1003806;-54
2024/01/29 03:02:20;;;;;;;39.30;23.50;;;;;;;8.90;51.82;103504.05;106892;1266;25396;-54
2024/01/29 03:04:47;;;;;;;43.00;25.20;;;;;;;8.34;52.96;103507.50;106466;1256;1003357;-54
2024/01/29 03:07:14;;;;;;;39.30;23.10;;;;;;;8.10;53.67;103507.26;107042;1251;25324;-55
2024/01/29 03:09:41;;;;;;;38.30;24.20;;;;;;;8.07;53.81;103509.95;106958;1255;24212;-54
2024/01/29 03:12:08;;;;;;;35.60;23.10;;;;;;;8.05;53.76;103511.23;106405;1256;1003075;-55
2024/01/29 03:14:37;;;;;;;36.40;22.50;;;;;;;8.04;53.80;103508.96;107094;1254;25329;-54
2024/01/29 03:17:04;;;;;;;37.80;23.20;;;;;;;8.04;53.76;103511.38;106423;1263;1002848;-54
2024/01/29 03:19:31;;;;;;;41.50;26.00;;;;;;;8.05;53.75;103511.59;106807;1268;25337;-53
2024/01/29 03:21:59;;;;;;;39.40;23.60;;;;;;;8.04;53.93;103510.52;107077;1264;25398;-53
2024/01/29 03:24:26;;;;;;;39.10;24.20;;;;;;;8.03;53.84;103509.65;107101;1254;23906;-54
2024/01/29 03:26:53;;;;;;;37.90;22.60;;;;;;;8.03;54.05;103512.77;107074;1257;22535;-53
2024/01/29 03:29:20;;;;;;;39.30;22.70;;;;;;;8.04;53.91;103513.63;106352;1257;1003724;-55
2024/01/29 03:31:47;;;;;;;37.20;23.70;;;;;;;8.05;53.84;103512.63;107159;1251;25347;-53
2024/01/29 03:34:14;;;;;;;38.80;23.70;;;;;;;8.05;54.07;103511.25;107100;1254;25350;-54
2024/01/29 03:36:44;;;;;;;45.10;25.60;;;;;;;8.04;53.80;103509.82;107099;1261;25458;-52
2024/01/29 03:39:12;;;;;;;39.30;23.10;;;;;;;8.03;53.95;103512.24;106443;1257;1003065;-55
2024/01/29 03:41:38;;;;;;;40.60;23.90;;;;;;;8.02;53.86;103511.86;107174;1257;25328;-55
2024/01/29 03:44:05;;;;;;;36.90;22.70;;;;;;;8.04;53.90;103513.98;107120;1251;22525;-53
2024/01/29 03:46:32;;;;;;;40.10;23.90;;;;;;;8.07;54.04;103509.05;107120;1263;25350;-54
2024/01/29 03:48:59;;;;;;;37.50;22.00;;;;;;;8.08;53.80;103510.15;107056;1254;25346;-54
2024/01/29 03:51:26;;;;;;;41.10;22.80;;;;;;;8.09;53.62;103513.29;107134;1255;25322;-54
2024/01/29 03:53:53;;;;;;;38.10;22.80;;;;;;;8.08;53.51;103520.70;106802;1260;22523;-56
2024/01/29 03:56:20;;;;;;;38.40;22.00;;;;;;;8.08;53.55;103516.87;107132;1267;25446;-53
2024/01/29 03:58:47;;;;;;;37.70;23.20;;;;;;;8.08;53.44;103521.36;107082;1263;25268;-54
2024/01/29 04:01:14;;;;;;;36.90;21.90;;;;;;;8.07;53.44;103525.84;107059;1254;25356;-54
2024/01/29 04:03:41;;;;;;;38.70;21.00;;;;;;;8.07;53.40;103528.08;106934;1256;22521;-54
2024/01/29 04:06:08;;;;;;;38.10;23.20;;;;;;;8.07;53.34;103530.84;107129;1267;22599;-54
2024/01/29 04:08:35;;;;;;;35.40;21.30;;;;;;;8.08;53.18;103531.41;106724;1256;513789;-55
2024/01/29 04:11:02;;;;;;;35.80;21.60;;;;;;;8.06;53.00;103534.80;107185;1266;25366;-54
2024/01/29 04:13:29;;;;;;;36.70;22.40;;;;;;;8.07;53.15;103536.54;107107;1257;25398;-54
2024/01/29 04:15:56;;;;;;;38.80;22.30;;;;;;;8.06;53.07;103532.71;107027;1266;25312;-55
2024/01/29 04:18:23;;;;;;;40.00;22.50;;;;;;;8.05;53.09;103535.11;107087;1254;22554;-54
2024/01/29 04:20:50;;;;;;;35.60;21.80;;;;;;;8.02;53.14;103534.84;106342;1254;1002956;-54
2024/01/29 04:23:17;;;;;;;36.00;22.10;;;;;;;8.01;53.15;103539.64;107138;1251;25404;-53
2024/01/29 04:25:44;;;;;;;38.80;22.30;;;;;;;8.00;53.21;103541.18;107196;1254;22634;-53
2024/01/29 04:28:12;;;;;;;36.00;21.40;;;;;;;7.99;53.11;103540.45;106828;1258;25538;-53
2024/01/29 04:30:39;;;;;;;40.30;23.30;;;;;;;8.00;53.18;103541.33;106903;1260;25341;-55
2024/01/29 04:33:06;;;;;;;38.30;22.30;;;;;;;7.99;53.25;103544.08;106919;1269;25386;-55
2024/01/29 04:35:34;;;;;;;37.90;22.90;;;;;;;7.99;53.37;103548.92;107132;1254;25322;-53
2024/01/29 04:38:01;;;;;;;36.50;23.10;;;;;;;8.00;53.40;103551.52;106132;1257;1003569;-53
2024/01/29 04:40:29;;;;;;;40.50;23.00;;;;;;;8.01;53.54;103560.02;107057;1254;22548;-53
2024/01/29 04:42:55;;;;;;;39.70;24.10;;;;;;;8.01;53.43;103558.15;106964;1258;25321;-53
2024/01/29 04:45:23;;;;;;;41.10;23.60;;;;;;;8.03;53.54;103565.63;107125;1251;23472;-54
2024/01/29 04:47:50;;;;;;;42.20;23.90;;;;;;;8.04;53.55;103566.55;107015;1264;25429;-53
2024/01/29 04:50:17;;;;;;;37.90;22.70;;;;;;;8.04;53.43;103559.61;106974;1258;25353;-54
2024/01/29 04:52:45;;;;;;;39.10;23.80;;;;;;;8.05;53.38;103558.95;106150;1260;1002834;-54
2024/01/29 04:55:12;;;;;;;36.20;21.90;;;;;;;8.04;53.39;103564.10;107149;1257;25318;-53
2024/01/29 04:57:39;;;;;;;40.50;23.30;;;;;;;8.03;53.49;103568.40;107035;1251;25315;-54
2024/01/29 05:00:08;;;;;;;38.10;23.30;;;;;;;8.04;53.59;103570.17;107166;1254;25471;-54
2024/01/29 05:02:35;;;;;;;43.40;24.00;;;;;;;8.04;53.74;103571.54;107071;1254;25584;-54
2024/01/29 05:05:03;;;;;;;39.70;24.00;;;;;;;8.04;53.59;103574.84;106415;1254;1002896;-54
2024/01/29 05:07:30;;;;;;;43.00;23.70;;;;;;;8.03;53.64;103577.05;106393;1266;1003382;-55
2024/01/29 05:09:57;;;;;;;39.80;22.00;;;;;;;8.01;53.72;103584.08;107101;1254;25367;-54
2024/01/29 05:12:24;;;;;;;35.90;22.60;;;;;;;7.99;53.63;103581.75;107076;1254;25321;-55
2024/01/29 05:14:51;;;;;;;41.70;23.70;;;;;;;8.00;53.63;103584.89;107113;1264;24217;-55
2024/01/29 05:17:18;;;;;;;40.80;23.80;;;;;;;7.99;53.54;103589.19;107051;1254;25369;-54
2024/01/29 05:19:47;;;;;;;40.30;23.50;;;;;;;7.97;53.67;103589.27;107159;1262;25478;-55
2024/01/29 05:22:14;;;;;;;43.20;22.70;;;;;;;7.98;53.77;103588.09;107176;1253;22531;-54
2024/01/29 05:24:41;;;;;;;43.70;24.50;;;;;;;7.97;53.65;103594.13;107188;1254;24343;-54
2024/01/29 05:27:08;;;;;;;40.50;23.40;;;;;;;7.95;53.64;103591.96;106848;1254;25331;-54
2024/01/29 05:29:35;;;;;;;37.70;23.40;;;;;;;7.93;53.61;103597.27;107154;1254;25471;-54
2024/01/29 05:32:02;;;;;;;35.80;22.60;;;;;;;7.94;53.70;103598.17;106189;1270;1003431;-54
2024/01/29 05:34:29;;;;;;;39.90;22.80;;;;;;;7.90;53.97;103605.80;107153;1258;25352;-53
2024/01/29 05:36:56;;;;;;;38.40;23.00;;;;;;;7.90;54.06;103609.27;107136;1252;25321;-54
2024/01/29 05:39:24;;;;;;;38.90;23.40;;;;;;;7.92;54.07;103617.61;106791;1267;25341;-54
2024/01/29 05:41:51;;;;;;;42.60;25.30;;;;;;;7.92;54.18;103617.81;106438;1255;1002853;-53
2024/01/29 05:44:18;;;;;;;40.30;24.70;;;;;;;7.92;54.15;103620.02;107122;1251;25353;-54
2024/01/29 05:46:45;;;;;;;37.30;23.60;;;;;;;7.90;54.07;103624.11;107138;1263;25372;-54
2024/01/29 05:49:12;;;;;;;39.00;24.60;;;;;;;7.93;54.30;103625.45;107142;1256;25359;-54
2024/01/29 05:51:39;;;;;;;39.20;23.30;;;;;;;7.97;54.18;103630.27;107238;1254;25356;-54
2024/01/29 05:54:06;;;;;;;38.90;22.50;;;;;;;8.00;54.21;103631.39;107093;1263;23258;-54
2024/01/29 05:56:33;;;;;;;41.10;23.80;;;;;;;8.01;54.21;103634.56;107053;1263;25223;-54
2024/01/29 05:59:00;;;;;;;34.20;21.60;;;;;;;8.02;54.04;103635.61;107038;1254;25396;-54
2024/01/29 06:01:27;;;;;;;39.10;23.70;;;;;;;8.02;53.97;103640.44;107181;1254;23238;-54
2024/01/29 06:03:54;;;;;;;39.70;22.90;;;;;;;8.02;53.91;103637.84;107148;1251;25421;-53
2024/01/29 06:06:22;;;;;;;40.80;22.50;;;;;;;8.03;54.08;103641.33;107075;1269;25420;-53
2024/01/29 06:08:49;;;;;;;41.50;23.60;;;;;;;8.05;54.00;103645.73;107245;1254;25331;-53
2024/01/29 06:11:16;;;;;;;35.40;21.80;;;;;;;8.00;53.98;103643.33;107046;1254;25398;-54
2024/01/29 06:13:43;;;;;;;34.70;23.00;;;;;;;8.00;53.78;103649.37;107026;1250;25319;-54
2024/01/29 06:16:10;;;;;;;36.50;22.20;;;;;;;8.00;54.01;103649.55;106386;1256;1003057;-54
2024/01/29 06:18:39;;;;;;;39.30;22.90;;;;;;;8.02;53.88;103649.27;107101;1254;25341;-53
2024/01/29 06:21:06;;;;;;;34.80;21.90;;;;;;;8.02;53.75;103653.60;107214;1260;25391;-54
2024/01/29 06:23:33;;;;;;;35.70;20.70;;;;;;;8.02;53.81;103660.69;107040;1264;25331;-54
2024/01/29 06:26:00;;;;;;;33.80;21.80;;;;;;;8.02;53.60;103657.23;106437;1257;1014668;-54
2024/01/29 06:28:26;;;;;;;32.00;20.80;;;;;;;8.03;53.77;103662.80;107044;1264;25481;-54
2024/01/29 06:30:53;;;;;;;30.90;21.40;;;;;;;8.04;53.63;103661.77;107012;1266;22520;-54
2024/01/29 06:33:21;;;;;;;32.80;21.80;;;;;;;8.03;53.74;103667.13;107176;1251;25370;-53
2024/01/29 06:35:48;;;;;;;35.10;21.70;;;;;;;8.01;53.66;103671.55;107086;1250;22759;-54
2024/01/29 06:38:15;;;;;;;34.60;22.70;;;;;;;7.99;53.61;103669.57;106805;1270;25408;-53
2024/01/29 06:40:42;;;;;;;36.50;21.60;;;;;;;7.98;53.65;103674.53;107134;1255;25327;-53
2024/01/29 06:43:09;;;;;;;34.40;21.60;;;;;;;7.98;53.66;103676.61;106925;1253;25322;-53
2024/01/29 06:45:36;;;;;;;31.40;20.40;;;;;;;7.99;53.76;103675.60;107131;1257;25472;-53
2024/01/29 06:48:05;;;;;;;34.20;22.60;;;;;;;7.99;53.75;103678.23;106421;1255;1003094;-53
2024/01/29 06:50:33;;;;;;;34.30;21.40;;;;;;;8.00;53.79;103679.65;107200;1250;22539;-53
2024/01/29 06:53:00;;;;;;;37.80;22.20;;;;;;;7.99;53.69;103679.75;106861;1259;24185;-53
2024/01/29 06:55:28;;;;;;;36.80;21.50;;;;;;;7.98;53.68;103675.41;106841;1266;25369;-55
2024/01/29 06:57:54;;;;;;;37.50;21.90;;;;;;;7.96;53.91;103675.31;106875;1260;25359;-53
2024/01/29 07:00:22;;;;;;;34.80;21.80;;;;;;;7.92;53.89;103679.52;106470;1260;1003407;-53
2024/01/29 07:02:49;;;;;;;37.60;22.10;;;;;;;7.97;53.92;103682.98;106969;1266;25385;-53
2024/01/29 07:05:16;;;;;;;32.90;22.10;;;;;;;7.98;53.87;103688.04;107166;1257;25347;-53
2024/01/29 07:07:43;;;;;;;32.10;20.80;;;;;;;7.98;53.74;103683.85;107103;1266;25399;-53
2024/01/29 07:10:10;;;;;;;35.90;21.80;;;;;;;7.97;53.75;103693.38;107145;1254;25360;-53
2024/01/29 07:12:37;;;;;;;36.80;21.50;;;;;;;7.95;54.01;103692.95;107082;1267;25356;-53
2024/01/29 07:15:05;;;;;;;32.60;20.30;;;;;;;7.89;54.16;103689.08;106317;1254;1002969;-53
2024/01/29 07:17:33;;;;;;;34.40;21.40;;;;;;;7.88;54.28;103690.07;107121;1250;25554;-52
2024/01/29 07:20:02;;;;;;;32.40;20.50;;;;;;;7.87;54.29;103688.48;107090;1257;24193;-53
2024/01/29 07:22:37;;;;;;;33.10;21.20;;;;;;;7.86;54.20;103687.42;107080;1251;25341;-54
2024/01/29 07:25:08;;;;;;;32.70;21.20;;;;;;;7.86;54.14;103691.23;107138;1251;25236;-53
2024/01/29 07:27:35;;;;;;;35.70;20.50;;;;;;;7.86;54.35;103688.09;106933;1269;25435;-53
2024/01/29 07:30:03;;;;;;;34.00;21.00;;;;;;;7.87;54.30;103690.41;107094;1257;25359;-53
2024/01/29 07:32:33;;;;;;;31.30;20.50;;;;;;;7.90;54.37;103683.58;107194;1251;25430;-53
2024/01/29 07:35:00;;;;;;;30.40;20.20;;;;;;;7.93;54.13;103683.84;107133;1252;25471;-53
2024/01/29 07:37:28;;;;;;;31.80;19.70;;;;;;;7.99;54.09;103679.59;107192;1260;25362;-53
2024/01/29 07:39:56;;;;;;;33.70;21.00;;;;;;;8.09;53.84;103679.61;107085;1257;25457;-55
2024/01/29 07:42:23;;;;;;;33.30;21.10;;;;;;;8.16;53.60;103677.06;107064;1259;25300;-53
2024/01/29 07:44:50;;;;;;;32.30;20.60;;;;;;;8.22;53.47;103683.69;107180;1256;25407;-53
2024/01/29 07:47:17;;;;;;;32.70;21.20;;;;;;;8.25;53.40;103682.08;106850;1266;22536;-53
2024/01/29 07:49:46;;;;;;;33.30;20.20;;;;;;;8.32;53.12;103688.69;106364;1255;1003504;-53
2024/01/29 07:52:13;;;;;;;30.50;19.60;;;;;;;8.35;53.01;103687.60;107082;1260;25389;-53
2024/01/29 07:54:41;;;;;;;32.50;19.80;;;;;;;8.38;52.99;103688.75;106340;1256;1003181;-53
2024/01/29 07:57:08;;;;;;;31.60;20.00;;;;;;;8.42;52.90;103690.77;107096;1257;25346;-54
2024/01/29 07:59:35;;;;;;;30.50;20.00;;;;;;;8.46;52.78;103695.59;106348;1254;1003383;-54
2024/01/29 08:02:02;;;;;;;34.60;19.90;;;;;;;8.48;52.64;103692.90;107106;1254;25366;-54
2024/01/29 08:04:31;;;;;;;32.30;20.00;;;;;;;8.51;52.35;103694.04;106344;1266;1003523;-53
2024/01/29 08:06:59;;;;;;;29.60;18.20;;;;;;;8.53;52.18;103697.73;107136;1268;22585;-54
2024/01/29 08:09:26;;;;;;;29.50;18.60;;;;;;;8.56;52.15;103701.30;107069;1270;25390;-53
2024/01/29 08:11:53;;;;;;;29.10;18.80;;;;;;;8.59;52.03;103703.14;107143;1266;25461;-54
2024/01/29 08:14:21;;;;;;;31.40;20.50;;;;;;;8.62;51.85;103704.29;106371;1266;1003601;-53
2024/01/29 08:16:48;;;;;;;29.00;18.80;;;;;;;8.66;51.78;103708.39;107177;1266;25478;-53
2024/01/29 08:19:15;;;;;;;31.90;18.70;;;;;;;8.69;51.56;103707.96;107158;1256;25465;-53
2024/01/29 08:21:45;;;;;;;30.80;18.20;;;;;;;8.72;51.59;103711.20;106357;1254;1002855;-53
2024/01/29 08:24:12;;;;;;;29.90;18.30;;;;;;;8.77;51.47;103712.20;107161;1267;25387;-54
2024/01/29 08:26:39;;;;;;;27.70;17.10;;;;;;;8.80;51.25;103713.69;107048;1256;25322;-53
2024/01/29 08:29:07;;;;;;;28.80;18.60;;;;;;;8.86;51.18;103714.59;106997;1256;25398;-53
2024/01/29 08:31:35;;;;;;;27.80;18.40;;;;;;;8.90;50.77;103718.52;107124;1254;25340;-53
2024/01/29 08:34:04;;;;;;;28.80;17.40;;;;;;;8.94;50.49;103719.87;106005;1267;1002898;-54
2024/01/29 08:36:31;;;;;;;28.20;18.90;;;;;;;8.99;50.57;103729.04;106956;1266;25452;-53
2024/01/29 11:39:02;;;;;;;20.40;11.80;;;;;;;9.88;46.22;103750.11;107155;1266;22616;-53
2024/01/29 11:41:31;;;;;;;19.40;11.90;;;;;;;9.69;47.20;103751.13;106918;1267;22537;-55
2024/01/29 11:44:00;;;;;;;19.90;11.40;;;;;;;9.81;47.43;103751.83;107144;1266;22591;-55
2024/01/29 11:46:27;;;;;;;16.30;11.40;;;;;;;9.80;47.66;103752.14;107101;1267;25471;-54
2024/01/29 11:48:58;;;;;;;17.60;11.30;;;;;;;9.76;47.93;103747.02;106979;1273;25380;-54
2024/01/29 11:51:31;;;;;;;16.70;10.90;;;;;;;9.60;48.58;103750.15;107106;1266;25398;-53
2024/01/29 11:53:59;;;;;;;21.30;12.90;;;;;;;9.54;48.78;103751.90;107107;1267;25331;-56
2024/01/29 11:56:26;;;;;;;25.40;15.40;;;;;;;9.52;49.05;103748.36;107074;1267;25356;-55
2024/01/29 11:59:03;;;;;;;20.60;12.90;;;;;;;9.67;48.89;103749.17;107110;1266;25356;-55
2024/01/29 12:01:31;;;;;;;31.80;16.40;;;;;;;9.69;48.92;103752.16;107126;1270;25349;-54
2024/01/29 12:03:59;;;;;;;20.80;13.80;;;;;;;9.69;48.91;103752.70;107118;1266;25541;-54
2024/01/29 12:06:28;;;;;;;21.70;14.30;;;;;;;9.68;48.85;103757.88;106955;1267;25402;-54
2024/01/29 12:08:57;;;;;;;17.20;11.60;;;;;;;9.67;48.74;103757.66;107094;1267;25359;-54
2024/01/29 12:11:25;;;;;;;18.10;11.00;;;;;;;9.65;48.75;103755.02;107152;1267;25331;-55
2024/01/29 12:13:55;;;;;;;19.20;12.50;;;;;;;9.61;48.82;103759.21;107045;1266;22521;-54
2024/01/29 12:16:24;;;;;;;21.60;12.90;;;;;;;9.58;48.90;103762.95;107091;1266;24189;-54
2024/01/29 12:18:51;;;;;;;23.20;14.30;;;;;;;9.58;48.95;103760.68;106868;1267;25378;-55
2024/01/29 12:21:18;;;;;;;22.30;14.10;;;;;;;9.55;48.58;103762.15;107184;1266;25471;-53
2024/01/29 12:23:45;;;;;;;19.50;12.40;;;;;;;9.53;48.61;103759.48;106319;1274;1002792;-53
2024/01/29 12:26:13;;;;;;;18.50;11.70;;;;;;;9.50;48.71;103759.23;107157;1266;25792;-54
2024/01/29 12:28:40;;;;;;;22.80;13.40;;;;;;;9.48;48.88;103761.23;107100;1266;22520;-53
2024/01/29 12:31:07;;;;;;;20.40;12.30;;;;;;;9.36;49.28;103762.61;107143;1257;25433;-53
2024/01/29 12:33:35;;;;;;;18.60;12.60;;;;;;;9.21;49.79;103761.42;107021;1266;25389;-53
2024/01/29 12:36:14;;;;;;;23.40;13.90;;;;;;;9.17;49.94;103760.28;107112;1267;25330;-53
2024/01/29 12:38:44;;;;;;;22.20;13.60;;;;;;;9.25;49.65;103766.73;107161;1266;25331;-53
2024/01/29 12:41:11;;;;;;;25.20;14.20;;;;;;;9.33;49.61;103770.14;106885;1271;22589;-53
2024/01/29 12:43:39;;;;;;;19.50;13.80;;;;;;;9.39;49.49;103774.98;106026;1272;1003728;-53
2024/01/29 12:46:13;;;;;;;25.10;14.50;;;;;;;9.38;49.23;103775.16;106872;1269;22542;-55
2024/01/29 12:48:41;;;;;;;21.20;13.90;;;;;;;9.40;49.16;103772.80;107087;1266;25458;-55
2024/01/29 12:51:10;;;;;;;21.00;14.20;;;;;;;9.43;49.07;103771.83;106334;1251;1003056;-54
2024/01/29 12:53:37;;;;;;;22.50;14.40;;;;;;;9.42;48.96;103771.45;107168;1266;22527;-54
2024/01/29 12:56:05;;;;;;;22.30;14.00;;;;;;;9.44;48.93;103773.06;107209;1266;25373;-55
2024/01/29 12:58:32;;;;;;;19.00;13.60;;;;;;;9.46;48.73;103772.27;106869;1266;25356;-55
2024/01/29 13:00:59;;;;;;;22.20;12.70;;;;;;;9.49;48.84;103775.48;106764;1267;23306;-55
2024/01/29 13:03:27;;;;;;;21.30;13.70;;;;;;;9.53;48.62;103773.86;106852;1272;24230;-54
2024/01/29 13:05:57;;;;;;;18.40;12.40;;;;;;;9.56;48.19;103774.84;107077;1266;22609;-54
2024/01/29 13:08:26;;;;;;;20.30;13.20;;;;;;;9.60;48.08;103774.59;106859;1267;25350;-55
2024/01/29 13:10:53;;;;;;;19.30;12.80;;;;;;;9.65;48.26;103773.02;107172;1267;25331;-54
2024/01/29 13:13:20;;;;;;;19.30;12.50;;;;;;;9.70;47.98;103776.15;107207;1266;25402;-55
2024/01/29 13:15:51;;;;;;;22.30;13.10;;;;;;;9.74;47.60;103778.67;107097;1270;25379;-53
2024/01/29 13:18:18;;;;;;;20.10;12.90;;;;;;;9.74;47.25;103778.86;107119;1262;22524;-55
2024/01/29 13:20:45;;;;;;;16.80;11.90;;;;;;;9.74;47.46;103780.59;107107;1266;23952;-54
2024/01/29 13:23:12;;;;;;;23.00;14.40;;;;;;;9.74;47.46;103785.62;107019;1270;25328;-52
2024/01/29 13:25:39;;;;;;;21.40;14.10;;;;;;;9.74;47.37;103783.88;106218;1270;1003582;-55
2024/01/29 13:28:08;;;;;;;28.70;16.40;;;;;;;9.76;47.21;103784.13;107145;1270;25529;-53
2024/01/29 13:30:37;;;;;;;23.40;13.70;;;;;;;9.78;47.10;103787.96;107157;1267;25287;-55
2024/01/29 13:33:06;;;;;;;21.90;13.90;;;;;;;9.79;46.76;103785.77;107078;1266;25818;-53
2024/01/29 13:35:33;;;;;;;21.20;13.20;;;;;;;9.82;46.34;103789.99;106878;1273;22537;-54
2024/01/29 13:38:00;;;;;;;22.20;12.90;;;;;;;9.82;46.36;103791.05;106896;1267;22523;-55
2024/01/29 13:40:28;;;;;;;20.00;13.50;;;;;;;9.80;46.45;103789.77;107066;1267;25478;-54
2024/01/29 13:42:56;;;;;;;22.10;13.50;;;;;;;9.79;46.41;103791.82;107093;1267;22734;-55
2024/01/29 13:45:24;;;;;;;22.80;13.50;;;;;;;9.77;46.18;103789.15;106893;1266;23260;-55
2024/01/29 13:47:52;;;;;;;18.20;11.20;;;;;;;9.76;45.99;103791.93;106897;1273;22639;-55
2024/01/29 13:50:20;;;;;;;20.00;12.30;;;;;;;9.76;45.54;103795.23;107166;1266;25502;-55
2024/01/29 13:52:47;;;;;;;20.10;12.20;;;;;;;9.74;45.64;103794.64;107106;1266;25423;-55
2024/01/29 13:55:15;;;;;;;23.90;14.40;;;;;;;9.73;45.85;103799.97;107078;1257;25505;-55
2024/01/29 13:57:42;;;;;;;24.40;14.80;;;;;;;9.70;46.11;103806.48;107173;1266;25353;-55
2024/01/29 14:00:10;;;;;;;20.50;13.00;;;;;;;9.69;46.20;103807.98;107095;1266;25414;-55
2024/01/29 14:02:38;;;;;;;21.00;12.00;;;;;;;9.66;45.95;103804.59;106961;1269;24391;-55
2024/01/29 14:05:06;;;;;;;19.70;12.80;;;;;;;9.62;45.84;103803.95;106345;1254;1003081;-55
2024/01/29 14:07:33;;;;;;;19.20;12.70;;;;;;;9.60;46.11;103805.46;107129;1267;24379;-55